sensor_id;sensor_type;location;lat;lon;timestamp;P1;durP1;ratioP1;P2;durP2;ratioP2
33740;SDS011;20065;48.380;10.892;2022-12-18T00:00:45;78.65;;;31.23;;
33740;SDS011;20065;48.380;10.892;2022-12-18T00:03:32;66.47;;;30.65;;
33740;SDS011;20065;48.380;10.892;2022-12-18T00:06:19;77.35;;;32.65;;
33740;SDS011;20065;48.380;10.892;2022-12-18T00:09:06;69.63;;;29.98;;
33740;SDS011;20065;48.380;10.892;2022-12-18T00:11:52;78.28;;;31.70;;
33740;SDS011;20065;48.380;10.892;2022-12-18T00:14:38;80.75;;;33.20;;
33740;SDS011;20065;48.380;10.892;2022-12-18T00:20:18;70.15;;;30.73;;
33740;SDS011;20065;48.380;10.892;2022-12-18T00:23:10;77.13;;;30.50;;
33740;SDS011;20065;48.380;10.892;2022-12-18T00:26:00;69.97;;;27.95;;
33740;SDS011;20065;48.380;10.892;2022-12-18T00:28:50;71.35;;;28.58;;
33740;SDS011;20065;48.380;10.892;2022-12-18T00:31:37;62.85;;;28.35;;
33740;SDS011;20065;48.380;10.892;2022-12-18T00:34:23;73.75;;;32.75;;
33740;SDS011;20065;48.380;10.892;2022-12-18T00:37:11;65.65;;;30.42;;
33740;SDS011;20065;48.380;10.892;2022-12-18T00:39:57;65.78;;;29.67;;
33740;SDS011;20065;48.380;10.892;2022-12-18T00:42:43;77.88;;;31.80;;
33740;SDS011;20065;48.380;10.892;2022-12-18T00:45:51;70.85;;;28.95;;
33740;SDS011;20065;48.380;10.892;2022-12-18T00:48:38;68.90;;;28.38;;
33740;SDS011;20065;48.380;10.892;2022-12-18T00:51:24;64.10;;;23.50;;
33740;SDS011;20065;48.380;10.892;2022-12-18T00:54:10;57.50;;;26.08;;
33740;SDS011;20065;48.380;10.892;2022-12-18T00:56:57;65.78;;;28.45;;
33740;SDS011;20065;48.380;10.892;2022-12-18T00:59:44;62.92;;;25.98;;
33740;SDS011;20065;48.380;10.892;2022-12-18T01:02:30;56.05;;;24.95;;
33740;SDS011;20065;48.380;10.892;2022-12-18T01:05:16;66.65;;;26.70;;
33740;SDS011;20065;48.380;10.892;2022-12-18T01:08:19;57.20;;;26.40;;
33740;SDS011;20065;48.380;10.892;2022-12-18T01:11:23;69.22;;;26.92;;
33740;SDS011;20065;48.380;10.892;2022-12-18T01:14:10;62.92;;;25.35;;
33740;SDS011;20065;48.380;10.892;2022-12-18T01:16:56;73.43;;;27.60;;
33740;SDS011;20065;48.380;10.892;2022-12-18T01:19:43;88.00;;;34.38;;
33740;SDS011;20065;48.380;10.892;2022-12-18T01:22:29;83.97;;;33.10;;
33740;SDS011;20065;48.380;10.892;2022-12-18T01:25:15;89.65;;;34.22;;
33740;SDS011;20065;48.380;10.892;2022-12-18T01:28:02;93.75;;;35.30;;
33740;SDS011;20065;48.380;10.892;2022-12-18T01:30:55;78.53;;;33.25;;
33740;SDS011;20065;48.380;10.892;2022-12-18T01:33:50;71.43;;;28.58;;
33740;SDS011;20065;48.380;10.892;2022-12-18T01:37:06;75.03;;;27.83;;
33740;SDS011;20065;48.380;10.892;2022-12-18T01:39:52;63.22;;;25.17;;
33740;SDS011;20065;48.380;10.892;2022-12-18T01:42:40;64.85;;;28.00;;
33740;SDS011;20065;48.380;10.892;2022-12-18T01:45:28;67.18;;;28.50;;
33740;SDS011;20065;48.380;10.892;2022-12-18T01:48:16;65.22;;;26.50;;
33740;SDS011;20065;48.380;10.892;2022-12-18T01:51:02;57.47;;;26.38;;
33740;SDS011;20065;48.380;10.892;2022-12-18T01:53:50;62.83;;;26.67;;
33740;SDS011;20065;48.380;10.892;2022-12-18T01:56:36;78.40;;;29.38;;
33740;SDS011;20065;48.380;10.892;2022-12-18T01:59:22;78.93;;;28.25;;
33740;SDS011;20065;48.380;10.892;2022-12-18T02:02:08;72.93;;;26.65;;
33740;SDS011;20065;48.380;10.892;2022-12-18T02:04:55;71.13;;;24.95;;
33740;SDS011;20065;48.380;10.892;2022-12-18T02:07:45;64.78;;;27.60;;
33740;SDS011;20065;48.380;10.892;2022-12-18T02:11:12;66.82;;;29.08;;
33740;SDS011;20065;48.380;10.892;2022-12-18T02:17:30;77.45;;;27.63;;
33740;SDS011;20065;48.380;10.892;2022-12-18T02:20:43;64.97;;;27.02;;
33740;SDS011;20065;48.380;10.892;2022-12-18T02:26:55;72.65;;;29.92;;
33740;SDS011;20065;48.380;10.892;2022-12-18T02:29:53;67.80;;;28.73;;
33740;SDS011;20065;48.380;10.892;2022-12-18T02:32:41;75.90;;;25.83;;
33740;SDS011;20065;48.380;10.892;2022-12-18T02:35:30;63.63;;;24.95;;
33740;SDS011;20065;48.380;10.892;2022-12-18T02:38:19;73.25;;;26.65;;
33740;SDS011;20065;48.380;10.892;2022-12-18T02:41:09;66.05;;;27.95;;
33740;SDS011;20065;48.380;10.892;2022-12-18T02:44:02;75.53;;;27.70;;
33740;SDS011;20065;48.380;10.892;2022-12-18T02:46:54;61.85;;;26.30;;
33740;SDS011;20065;48.380;10.892;2022-12-18T02:49:47;74.88;;;25.40;;
33740;SDS011;20065;48.380;10.892;2022-12-18T02:56:09;61.65;;;24.38;;
33740;SDS011;20065;48.380;10.892;2022-12-18T02:59:05;66.70;;;26.30;;
33740;SDS011;20065;48.380;10.892;2022-12-18T03:02:16;60.50;;;25.63;;
33740;SDS011;20065;48.380;10.892;2022-12-18T03:05:19;66.38;;;24.55;;
33740;SDS011;20065;48.380;10.892;2022-12-18T03:08:14;68.05;;;25.67;;
33740;SDS011;20065;48.380;10.892;2022-12-18T03:11:06;64.35;;;26.42;;
33740;SDS011;20065;48.380;10.892;2022-12-18T03:13:55;69.07;;;23.25;;
33740;SDS011;20065;48.380;10.892;2022-12-18T03:16:44;67.18;;;26.77;;
33740;SDS011;20065;48.380;10.892;2022-12-18T03:19:31;60.40;;;23.58;;
33740;SDS011;20065;48.380;10.892;2022-12-18T03:22:20;56.05;;;23.58;;
33740;SDS011;20065;48.380;10.892;2022-12-18T03:25:11;66.40;;;24.10;;
33740;SDS011;20065;48.380;10.892;2022-12-18T03:28:01;61.65;;;24.75;;
33740;SDS011;20065;48.380;10.892;2022-12-18T03:30:52;60.58;;;23.23;;
33740;SDS011;20065;48.380;10.892;2022-12-18T03:34:01;58.45;;;23.75;;
33740;SDS011;20065;48.380;10.892;2022-12-18T03:36:59;53.95;;;20.45;;
33740;SDS011;20065;48.380;10.892;2022-12-18T03:39:47;67.57;;;22.45;;
33740;SDS011;20065;48.380;10.892;2022-12-18T03:42:42;60.25;;;22.65;;
33740;SDS011;20065;48.380;10.892;2022-12-18T03:45:37;54.92;;;21.73;;
33740;SDS011;20065;48.380;10.892;2022-12-18T03:48:29;51.83;;;20.55;;
33740;SDS011;20065;48.380;10.892;2022-12-18T03:51:27;65.65;;;22.50;;
33740;SDS011;20065;48.380;10.892;2022-12-18T03:54:14;56.13;;;20.95;;
33740;SDS011;20065;48.380;10.892;2022-12-18T03:57:10;50.20;;;22.38;;
33740;SDS011;20065;48.380;10.892;2022-12-18T04:00:08;58.97;;;20.63;;
33740;SDS011;20065;48.380;10.892;2022-12-18T04:02:59;54.65;;;19.90;;
33740;SDS011;20065;48.380;10.892;2022-12-18T04:05:56;57.95;;;24.08;;
33740;SDS011;20065;48.380;10.892;2022-12-18T04:08:46;64.68;;;21.13;;
33740;SDS011;20065;48.380;10.892;2022-12-18T04:11:36;52.25;;;22.65;;
33740;SDS011;20065;48.380;10.892;2022-12-18T04:14:23;55.95;;;21.73;;
33740;SDS011;20065;48.380;10.892;2022-12-18T04:17:14;54.35;;;21.23;;
33740;SDS011;20065;48.380;10.892;2022-12-18T04:20:00;66.22;;;24.27;;
33740;SDS011;20065;48.380;10.892;2022-12-18T04:22:46;52.97;;;21.35;;
33740;SDS011;20065;48.380;10.892;2022-12-18T04:25:33;55.88;;;22.38;;
33740;SDS011;20065;48.380;10.892;2022-12-18T04:28:29;56.50;;;22.90;;
33740;SDS011;20065;48.380;10.892;2022-12-18T04:31:15;52.63;;;22.60;;
33740;SDS011;20065;48.380;10.892;2022-12-18T04:34:02;62.28;;;22.15;;
33740;SDS011;20065;48.380;10.892;2022-12-18T04:36:54;56.75;;;21.55;;
33740;SDS011;20065;48.380;10.892;2022-12-18T04:39:42;58.50;;;22.48;;
33740;SDS011;20065;48.380;10.892;2022-12-18T04:42:35;57.72;;;24.35;;
33740;SDS011;20065;48.380;10.892;2022-12-18T04:45:21;58.97;;;23.00;;
33740;SDS011;20065;48.380;10.892;2022-12-18T04:48:07;55.25;;;22.77;;
33740;SDS011;20065;48.380;10.892;2022-12-18T04:50:53;58.20;;;22.92;;
33740;SDS011;20065;48.380;10.892;2022-12-18T04:53:40;58.40;;;22.98;;
33740;SDS011;20065;48.380;10.892;2022-12-18T04:56:26;60.65;;;23.40;;
33740;SDS011;20065;48.380;10.892;2022-12-18T04:59:12;64.15;;;23.65;;
33740;SDS011;20065;48.380;10.892;2022-12-18T05:01:58;55.47;;;23.90;;
33740;SDS011;20065;48.380;10.892;2022-12-18T05:04:44;54.25;;;23.17;;
33740;SDS011;20065;48.380;10.892;2022-12-18T05:07:30;61.75;;;24.08;;
33740;SDS011;20065;48.380;10.892;2022-12-18T05:10:17;47.85;;;18.95;;
33740;SDS011;20065;48.380;10.892;2022-12-18T05:13:03;60.83;;;23.55;;
33740;SDS011;20065;48.380;10.892;2022-12-18T05:15:52;55.55;;;22.08;;
33740;SDS011;20065;48.380;10.892;2022-12-18T05:18:38;60.60;;;24.98;;
33740;SDS011;20065;48.380;10.892;2022-12-18T05:21:25;60.20;;;22.75;;
33740;SDS011;20065;48.380;10.892;2022-12-18T05:24:11;51.22;;;22.35;;
33740;SDS011;20065;48.380;10.892;2022-12-18T05:26:57;61.55;;;22.85;;
33740;SDS011;20065;48.380;10.892;2022-12-18T05:29:44;63.28;;;23.90;;
33740;SDS011;20065;48.380;10.892;2022-12-18T05:32:30;59.53;;;22.02;;
33740;SDS011;20065;48.380;10.892;2022-12-18T05:35:16;65.20;;;24.85;;
33740;SDS011;20065;48.380;10.892;2022-12-18T05:38:02;59.85;;;25.05;;
33740;SDS011;20065;48.380;10.892;2022-12-18T05:40:49;54.45;;;20.33;;
33740;SDS011;20065;48.380;10.892;2022-12-18T05:43:36;66.72;;;23.40;;
33740;SDS011;20065;48.380;10.892;2022-12-18T05:46:23;66.40;;;23.38;;
33740;SDS011;20065;48.380;10.892;2022-12-18T05:49:09;55.78;;;21.38;;
33740;SDS011;20065;48.380;10.892;2022-12-18T05:51:56;59.50;;;21.98;;
33740;SDS011;20065;48.380;10.892;2022-12-18T05:54:42;56.30;;;24.02;;
33740;SDS011;20065;48.380;10.892;2022-12-18T05:57:28;63.22;;;23.45;;
33740;SDS011;20065;48.380;10.892;2022-12-18T06:00:14;60.60;;;23.40;;
33740;SDS011;20065;48.380;10.892;2022-12-18T06:03:01;57.50;;;22.33;;
33740;SDS011;20065;48.380;10.892;2022-12-18T06:05:47;60.15;;;23.42;;
33740;SDS011;20065;48.380;10.892;2022-12-18T06:08:33;59.78;;;22.45;;
33740;SDS011;20065;48.380;10.892;2022-12-18T06:11:21;65.93;;;24.40;;
33740;SDS011;20065;48.380;10.892;2022-12-18T06:14:09;53.05;;;21.95;;
33740;SDS011;20065;48.380;10.892;2022-12-18T06:16:55;51.97;;;19.27;;
33740;SDS011;20065;48.380;10.892;2022-12-18T06:19:41;60.00;;;23.73;;
33740;SDS011;20065;48.380;10.892;2022-12-18T06:22:27;52.13;;;22.30;;
33740;SDS011;20065;48.380;10.892;2022-12-18T06:25:16;53.33;;;20.80;;
33740;SDS011;20065;48.380;10.892;2022-12-18T06:28:02;55.45;;;23.42;;
33740;SDS011;20065;48.380;10.892;2022-12-18T06:30:48;54.80;;;24.13;;
33740;SDS011;20065;48.380;10.892;2022-12-18T06:33:35;54.63;;;22.80;;
33740;SDS011;20065;48.380;10.892;2022-12-18T06:36:21;52.03;;;22.85;;
33740;SDS011;20065;48.380;10.892;2022-12-18T06:39:08;65.75;;;25.58;;
33740;SDS011;20065;48.380;10.892;2022-12-18T06:41:57;53.60;;;21.95;;
33740;SDS011;20065;48.380;10.892;2022-12-18T06:44:43;53.45;;;23.60;;
33740;SDS011;20065;48.380;10.892;2022-12-18T06:47:29;56.60;;;22.83;;
33740;SDS011;20065;48.380;10.892;2022-12-18T06:50:15;60.45;;;23.33;;
33740;SDS011;20065;48.380;10.892;2022-12-18T06:53:02;61.75;;;25.60;;
33740;SDS011;20065;48.380;10.892;2022-12-18T06:55:48;59.13;;;23.58;;
33740;SDS011;20065;48.380;10.892;2022-12-18T06:58:34;55.08;;;23.90;;
33740;SDS011;20065;48.380;10.892;2022-12-18T07:01:21;65.28;;;25.10;;
33740;SDS011;20065;48.380;10.892;2022-12-18T07:04:08;63.58;;;25.95;;
33740;SDS011;20065;48.380;10.892;2022-12-18T07:06:54;58.10;;;23.88;;
33740;SDS011;20065;48.380;10.892;2022-12-18T07:09:40;65.50;;;24.73;;
33740;SDS011;20065;48.380;10.892;2022-12-18T07:12:27;63.45;;;25.83;;
33740;SDS011;20065;48.380;10.892;2022-12-18T07:15:13;56.30;;;21.70;;
33740;SDS011;20065;48.380;10.892;2022-12-18T07:17:59;54.47;;;22.85;;
33740;SDS011;20065;48.380;10.892;2022-12-18T07:20:45;53.70;;;21.92;;
33740;SDS011;20065;48.380;10.892;2022-12-18T07:23:32;52.65;;;22.08;;
33740;SDS011;20065;48.380;10.892;2022-12-18T07:26:20;53.55;;;21.38;;
33740;SDS011;20065;48.380;10.892;2022-12-18T07:29:07;47.70;;;21.10;;
33740;SDS011;20065;48.380;10.892;2022-12-18T07:31:53;46.08;;;18.20;;
33740;SDS011;20065;48.380;10.892;2022-12-18T07:34:39;57.90;;;23.63;;
33740;SDS011;20065;48.380;10.892;2022-12-18T07:37:25;51.08;;;20.63;;
33740;SDS011;20065;48.380;10.892;2022-12-18T07:40:12;57.95;;;22.05;;
33740;SDS011;20065;48.380;10.892;2022-12-18T07:42:58;52.72;;;19.95;;
33740;SDS011;20065;48.380;10.892;2022-12-18T07:45:44;50.75;;;21.20;;
33740;SDS011;20065;48.380;10.892;2022-12-18T07:48:30;52.13;;;22.27;;
33740;SDS011;20065;48.380;10.892;2022-12-18T07:51:17;58.65;;;21.45;;
33740;SDS011;20065;48.380;10.892;2022-12-18T07:54:04;45.38;;;19.95;;
33740;SDS011;20065;48.380;10.892;2022-12-18T07:56:50;48.22;;;20.08;;
33740;SDS011;20065;48.380;10.892;2022-12-18T07:59:37;50.35;;;21.40;;
33740;SDS011;20065;48.380;10.892;2022-12-18T08:02:23;49.05;;;21.40;;
33740;SDS011;20065;48.380;10.892;2022-12-18T08:05:09;42.15;;;20.02;;
33740;SDS011;20065;48.380;10.892;2022-12-18T08:07:55;44.13;;;18.17;;
33740;SDS011;20065;48.380;10.892;2022-12-18T08:10:43;48.90;;;20.20;;
33740;SDS011;20065;48.380;10.892;2022-12-18T08:13:29;52.75;;;20.88;;
33740;SDS011;20065;48.380;10.892;2022-12-18T08:16:16;43.00;;;19.70;;
33740;SDS011;20065;48.380;10.892;2022-12-18T08:19:02;49.90;;;18.95;;
33740;SDS011;20065;48.380;10.892;2022-12-18T08:21:49;54.28;;;19.95;;
33740;SDS011;20065;48.380;10.892;2022-12-18T08:24:35;46.58;;;19.60;;
33740;SDS011;20065;48.380;10.892;2022-12-18T08:27:21;45.50;;;20.30;;
33740;SDS011;20065;48.380;10.892;2022-12-18T08:30:07;47.20;;;20.27;;
33740;SDS011;20065;48.380;10.892;2022-12-18T08:32:54;51.10;;;20.55;;
33740;SDS011;20065;48.380;10.892;2022-12-18T08:35:40;44.15;;;20.23;;
33740;SDS011;20065;48.380;10.892;2022-12-18T08:38:27;55.55;;;23.58;;
33740;SDS011;20065;48.380;10.892;2022-12-18T08:41:14;48.28;;;19.80;;
33740;SDS011;20065;48.380;10.892;2022-12-18T08:44:01;48.72;;;21.67;;
33740;SDS011;20065;48.380;10.892;2022-12-18T08:47:06;47.28;;;20.85;;
33740;SDS011;20065;48.380;10.892;2022-12-18T08:49:53;47.60;;;18.70;;
33740;SDS011;20065;48.380;10.892;2022-12-18T08:52:39;46.47;;;20.52;;
33740;SDS011;20065;48.380;10.892;2022-12-18T08:55:25;58.75;;;25.48;;
33740;SDS011;20065;48.380;10.892;2022-12-18T08:58:11;44.75;;;20.80;;
33740;SDS011;20065;48.380;10.892;2022-12-18T09:01:05;42.47;;;19.27;;
33740;SDS011;20065;48.380;10.892;2022-12-18T09:03:52;44.92;;;20.05;;
33740;SDS011;20065;48.380;10.892;2022-12-18T09:06:39;43.85;;;18.52;;
33740;SDS011;20065;48.380;10.892;2022-12-18T09:09:25;48.35;;;21.50;;
33740;SDS011;20065;48.380;10.892;2022-12-18T09:12:11;52.92;;;24.48;;
33740;SDS011;20065;48.380;10.892;2022-12-18T09:14:57;42.58;;;20.83;;
33740;SDS011;20065;48.380;10.892;2022-12-18T09:17:44;54.28;;;21.35;;
33740;SDS011;20065;48.380;10.892;2022-12-18T09:20:30;48.42;;;22.90;;
33740;SDS011;20065;48.380;10.892;2022-12-18T09:23:16;47.03;;;21.55;;
33740;SDS011;20065;48.380;10.892;2022-12-18T09:26:03;47.47;;;19.98;;
33740;SDS011;20065;48.380;10.892;2022-12-18T09:28:49;48.63;;;20.00;;
33740;SDS011;20065;48.380;10.892;2022-12-18T09:31:36;48.28;;;20.92;;
33740;SDS011;20065;48.380;10.892;2022-12-18T09:34:23;45.33;;;20.58;;
33740;SDS011;20065;48.380;10.892;2022-12-18T09:37:09;44.40;;;21.15;;
33740;SDS011;20065;48.380;10.892;2022-12-18T09:39:55;52.63;;;22.13;;
33740;SDS011;20065;48.380;10.892;2022-12-18T09:42:43;51.53;;;19.95;;
33740;SDS011;20065;48.380;10.892;2022-12-18T09:45:41;57.70;;;24.50;;
33740;SDS011;20065;48.380;10.892;2022-12-18T09:48:32;46.00;;;20.85;;
33740;SDS011;20065;48.380;10.892;2022-12-18T09:51:28;47.38;;;21.88;;
33740;SDS011;20065;48.380;10.892;2022-12-18T09:54:24;43.90;;;19.83;;
33740;SDS011;20065;48.380;10.892;2022-12-18T09:57:18;49.72;;;23.90;;
33740;SDS011;20065;48.380;10.892;2022-12-18T10:00:18;57.83;;;23.80;;
33740;SDS011;20065;48.380;10.892;2022-12-18T10:03:10;54.67;;;24.00;;
33740;SDS011;20065;48.380;10.892;2022-12-18T10:09:28;55.47;;;24.23;;
33740;SDS011;20065;48.380;10.892;2022-12-18T10:15:14;52.35;;;22.88;;
33740;SDS011;20065;48.380;10.892;2022-12-18T10:20:52;57.45;;;25.58;;
33740;SDS011;20065;48.380;10.892;2022-12-18T10:26:51;49.97;;;22.50;;
33740;SDS011;20065;48.380;10.892;2022-12-18T10:29:38;57.05;;;23.00;;
33740;SDS011;20065;48.380;10.892;2022-12-18T10:32:25;48.75;;;19.75;;
33740;SDS011;20065;48.380;10.892;2022-12-18T10:35:24;43.83;;;20.42;;
33740;SDS011;20065;48.380;10.892;2022-12-18T10:40:58;44.17;;;19.67;;
33740;SDS011;20065;48.380;10.892;2022-12-18T10:44:16;42.53;;;19.70;;
33740;SDS011;20065;48.380;10.892;2022-12-18T10:47:11;47.63;;;20.30;;
33740;SDS011;20065;48.380;10.892;2022-12-18T10:50:11;47.65;;;20.95;;
33740;SDS011;20065;48.380;10.892;2022-12-18T10:53:13;43.88;;;19.67;;
33740;SDS011;20065;48.380;10.892;2022-12-18T10:56:10;48.38;;;21.88;;
33740;SDS011;20065;48.380;10.892;2022-12-18T10:59:01;45.90;;;20.88;;
33740;SDS011;20065;48.380;10.892;2022-12-18T11:02:07;51.28;;;21.45;;
33740;SDS011;20065;48.380;10.892;2022-12-18T11:08:12;48.65;;;20.75;;
33740;SDS011;20065;48.380;10.892;2022-12-18T11:11:42;49.75;;;20.83;;
33740;SDS011;20065;48.380;10.892;2022-12-18T11:14:30;48.85;;;21.33;;
33740;SDS011;20065;48.380;10.892;2022-12-18T11:23:21;55.13;;;23.48;;
33740;SDS011;20065;48.380;10.892;2022-12-18T11:26:09;50.28;;;22.70;;
33740;SDS011;20065;48.380;10.892;2022-12-18T11:29:09;53.15;;;21.20;;
33740;SDS011;20065;48.380;10.892;2022-12-18T11:38:37;46.22;;;21.25;;
33740;SDS011;20065;48.380;10.892;2022-12-18T11:41:41;41.45;;;19.35;;
33740;SDS011;20065;48.380;10.892;2022-12-18T11:44:57;45.22;;;20.05;;
33740;SDS011;20065;48.380;10.892;2022-12-18T11:48:18;55.53;;;23.08;;
33740;SDS011;20065;48.380;10.892;2022-12-18T11:51:17;48.88;;;22.65;;
33740;SDS011;20065;48.380;10.892;2022-12-18T11:54:15;51.50;;;22.27;;
33740;SDS011;20065;48.380;10.892;2022-12-18T11:57:05;47.63;;;23.20;;
33740;SDS011;20065;48.380;10.892;2022-12-18T12:13:03;58.13;;;24.85;;
33740;SDS011;20065;48.380;10.892;2022-12-18T12:21:41;53.75;;;22.58;;
33740;SDS011;20065;48.380;10.892;2022-12-18T12:30:25;52.70;;;22.50;;
33740;SDS011;20065;48.380;10.892;2022-12-18T12:33:31;46.78;;;21.75;;
33740;SDS011;20065;48.380;10.892;2022-12-18T12:40:10;49.63;;;21.55;;
33740;SDS011;20065;48.380;10.892;2022-12-18T12:46:36;48.45;;;21.85;;
33740;SDS011;20065;48.380;10.892;2022-12-18T12:49:27;44.40;;;20.65;;
33740;SDS011;20065;48.380;10.892;2022-12-18T12:52:34;44.97;;;20.52;;
33740;SDS011;20065;48.380;10.892;2022-12-18T12:55:27;42.92;;;19.45;;
33740;SDS011;20065;48.380;10.892;2022-12-18T13:07:11;51.88;;;21.80;;
33740;SDS011;20065;48.380;10.892;2022-12-18T13:16:05;49.53;;;21.50;;
33740;SDS011;20065;48.380;10.892;2022-12-18T13:18:53;51.20;;;21.90;;
33740;SDS011;20065;48.380;10.892;2022-12-18T13:21:43;50.13;;;23.48;;
33740;SDS011;20065;48.380;10.892;2022-12-18T13:24:39;46.03;;;20.83;;
33740;SDS011;20065;48.380;10.892;2022-12-18T13:44:54;46.38;;;20.55;;
33740;SDS011;20065;48.380;10.892;2022-12-18T13:47:40;51.70;;;20.88;;
33740;SDS011;20065;48.380;10.892;2022-12-18T13:50:29;48.97;;;19.70;;
33740;SDS011;20065;48.380;10.892;2022-12-18T13:53:19;45.20;;;20.13;;
33740;SDS011;20065;48.380;10.892;2022-12-18T13:56:16;43.70;;;20.02;;
33740;SDS011;20065;48.380;10.892;2022-12-18T14:02:13;47.15;;;20.30;;
33740;SDS011;20065;48.380;10.892;2022-12-18T14:05:01;48.28;;;19.35;;
33740;SDS011;20065;48.380;10.892;2022-12-18T14:07:48;47.15;;;20.65;;
33740;SDS011;20065;48.380;10.892;2022-12-18T14:10:34;47.25;;;20.73;;
33740;SDS011;20065;48.380;10.892;2022-12-18T14:13:24;47.67;;;20.95;;
33740;SDS011;20065;48.380;10.892;2022-12-18T14:16:15;48.75;;;20.65;;
33740;SDS011;20065;48.380;10.892;2022-12-18T14:19:02;47.35;;;19.25;;
33740;SDS011;20065;48.380;10.892;2022-12-18T14:21:49;47.67;;;21.90;;
33740;SDS011;20065;48.380;10.892;2022-12-18T14:24:35;47.97;;;21.48;;
33740;SDS011;20065;48.380;10.892;2022-12-18T14:27:24;47.60;;;22.27;;
33740;SDS011;20065;48.380;10.892;2022-12-18T14:35:57;44.47;;;21.67;;
33740;SDS011;20065;48.380;10.892;2022-12-18T14:38:50;46.35;;;21.50;;
33740;SDS011;20065;48.380;10.892;2022-12-18T14:41:39;44.63;;;21.60;;
33740;SDS011;20065;48.380;10.892;2022-12-18T14:44:25;47.63;;;19.80;;
33740;SDS011;20065;48.380;10.892;2022-12-18T14:47:17;49.03;;;20.38;;
33740;SDS011;20065;48.380;10.892;2022-12-18T14:50:15;42.60;;;20.13;;
33740;SDS011;20065;48.380;10.892;2022-12-18T14:53:01;52.25;;;22.38;;
33740;SDS011;20065;48.380;10.892;2022-12-18T14:55:48;49.38;;;22.10;;
33740;SDS011;20065;48.380;10.892;2022-12-18T14:58:35;54.55;;;21.60;;
33740;SDS011;20065;48.380;10.892;2022-12-18T15:07:22;48.38;;;21.13;;
33740;SDS011;20065;48.380;10.892;2022-12-18T15:15:47;45.17;;;19.75;;
33740;SDS011;20065;48.380;10.892;2022-12-18T15:18:34;58.40;;;24.25;;
33740;SDS011;20065;48.380;10.892;2022-12-18T15:21:26;64.05;;;25.83;;
33740;SDS011;20065;48.380;10.892;2022-12-18T15:24:22;58.67;;;26.20;;
33740;SDS011;20065;48.380;10.892;2022-12-18T15:27:20;59.95;;;25.95;;
33740;SDS011;20065;48.380;10.892;2022-12-18T15:30:29;56.30;;;22.13;;
33740;SDS011;20065;48.380;10.892;2022-12-18T15:33:22;54.80;;;21.55;;
33740;SDS011;20065;48.380;10.892;2022-12-18T15:36:11;52.10;;;22.10;;
33740;SDS011;20065;48.380;10.892;2022-12-18T15:38:59;54.63;;;21.55;;
33740;SDS011;20065;48.380;10.892;2022-12-18T15:41:46;57.08;;;27.45;;
33740;SDS011;20065;48.380;10.892;2022-12-18T15:44:51;54.85;;;24.00;;
33740;SDS011;20065;48.380;10.892;2022-12-18T15:47:37;54.97;;;23.20;;
33740;SDS011;20065;48.380;10.892;2022-12-18T15:50:23;50.55;;;21.38;;
33740;SDS011;20065;48.380;10.892;2022-12-18T15:53:10;56.22;;;23.92;;
33740;SDS011;20065;48.380;10.892;2022-12-18T15:55:57;53.67;;;20.95;;
33740;SDS011;20065;48.380;10.892;2022-12-18T15:59:02;49.70;;;20.38;;
33740;SDS011;20065;48.380;10.892;2022-12-18T16:01:54;57.28;;;23.45;;
33740;SDS011;20065;48.380;10.892;2022-12-18T16:04:40;50.95;;;21.75;;
33740;SDS011;20065;48.380;10.892;2022-12-18T16:07:27;65.57;;;23.90;;
33740;SDS011;20065;48.380;10.892;2022-12-18T16:10:16;56.88;;;24.73;;
33740;SDS011;20065;48.380;10.892;2022-12-18T16:13:03;56.13;;;23.05;;
33740;SDS011;20065;48.380;10.892;2022-12-18T16:15:49;65.07;;;25.20;;
33740;SDS011;20065;48.380;10.892;2022-12-18T16:18:35;68.30;;;28.70;;
33740;SDS011;20065;48.380;10.892;2022-12-18T16:21:21;54.53;;;23.08;;
33740;SDS011;20065;48.380;10.892;2022-12-18T16:24:29;71.13;;;27.88;;
33740;SDS011;20065;48.380;10.892;2022-12-18T16:27:15;62.90;;;26.48;;
33740;SDS011;20065;48.380;10.892;2022-12-18T16:30:02;59.80;;;24.90;;
33740;SDS011;20065;48.380;10.892;2022-12-18T16:32:49;51.97;;;23.10;;
33740;SDS011;20065;48.380;10.892;2022-12-18T16:35:35;65.05;;;27.63;;
33740;SDS011;20065;48.380;10.892;2022-12-18T16:38:22;65.95;;;24.17;;
33740;SDS011;20065;48.380;10.892;2022-12-18T16:41:17;55.15;;;24.00;;
33740;SDS011;20065;48.380;10.892;2022-12-18T16:44:16;59.00;;;24.40;;
33740;SDS011;20065;48.380;10.892;2022-12-18T16:47:03;51.03;;;23.08;;
33740;SDS011;20065;48.380;10.892;2022-12-18T16:49:50;62.00;;;25.63;;
33740;SDS011;20065;48.380;10.892;2022-12-18T16:52:37;56.65;;;23.40;;
33740;SDS011;20065;48.380;10.892;2022-12-18T16:55:24;63.42;;;23.92;;
33740;SDS011;20065;48.380;10.892;2022-12-18T16:58:10;61.92;;;24.20;;
33740;SDS011;20065;48.380;10.892;2022-12-18T17:00:56;71.05;;;27.85;;
33740;SDS011;20065;48.380;10.892;2022-12-18T17:03:42;55.25;;;23.08;;
33740;SDS011;20065;48.380;10.892;2022-12-18T17:06:30;59.97;;;25.83;;
33740;SDS011;20065;48.380;10.892;2022-12-18T17:09:19;52.92;;;22.85;;
33740;SDS011;20065;48.380;10.892;2022-12-18T17:12:12;58.95;;;24.30;;
33740;SDS011;20065;48.380;10.892;2022-12-18T17:14:58;58.25;;;25.00;;
33740;SDS011;20065;48.380;10.892;2022-12-18T17:17:44;65.15;;;28.50;;
33740;SDS011;20065;48.380;10.892;2022-12-18T17:20:31;63.78;;;25.85;;
33740;SDS011;20065;48.380;10.892;2022-12-18T17:23:20;64.80;;;26.88;;
33740;SDS011;20065;48.380;10.892;2022-12-18T17:31:57;58.33;;;25.95;;
33740;SDS011;20065;48.380;10.892;2022-12-18T17:34:43;57.38;;;24.20;;
33740;SDS011;20065;48.380;10.892;2022-12-18T17:37:31;51.88;;;23.35;;
33740;SDS011;20065;48.380;10.892;2022-12-18T17:40:36;54.92;;;23.10;;
33740;SDS011;20065;48.380;10.892;2022-12-18T17:43:25;54.28;;;24.42;;
33740;SDS011;20065;48.380;10.892;2022-12-18T17:46:13;52.33;;;24.75;;
33740;SDS011;20065;48.380;10.892;2022-12-18T17:49:12;66.13;;;24.35;;
33740;SDS011;20065;48.380;10.892;2022-12-18T17:52:09;56.10;;;23.60;;
33740;SDS011;20065;48.380;10.892;2022-12-18T17:54:55;55.38;;;23.88;;
33740;SDS011;20065;48.380;10.892;2022-12-18T17:57:44;52.92;;;25.05;;
33740;SDS011;20065;48.380;10.892;2022-12-18T18:00:32;57.67;;;24.58;;
33740;SDS011;20065;48.380;10.892;2022-12-18T18:03:18;69.32;;;27.48;;
33740;SDS011;20065;48.380;10.892;2022-12-18T18:06:13;66.50;;;26.02;;
33740;SDS011;20065;48.380;10.892;2022-12-18T18:09:00;60.13;;;26.90;;
33740;SDS011;20065;48.380;10.892;2022-12-18T18:11:46;61.70;;;27.95;;
33740;SDS011;20065;48.380;10.892;2022-12-18T18:14:51;51.15;;;22.90;;
33740;SDS011;20065;48.380;10.892;2022-12-18T18:17:37;57.85;;;24.30;;
33740;SDS011;20065;48.380;10.892;2022-12-18T18:20:23;59.60;;;26.15;;
33740;SDS011;20065;48.380;10.892;2022-12-18T18:23:09;58.95;;;25.40;;
33740;SDS011;20065;48.380;10.892;2022-12-18T18:26:00;56.67;;;23.27;;
33740;SDS011;20065;48.380;10.892;2022-12-18T18:28:48;68.28;;;24.40;;
33740;SDS011;20065;48.380;10.892;2022-12-18T18:31:34;71.22;;;26.52;;
33740;SDS011;20065;48.380;10.892;2022-12-18T18:34:22;52.28;;;23.17;;